Time;durP1;ratioP1;P1;durP2;ratioP2;P2;SDS_P1;SDS_P2;PMS_P1;PMS_P2;Temp;Humidity;BMP_temperature;BMP_pressure;BME280_temperature;BME280_humidity;BME280_pressure;Samples;Min_cycle;Max_cycle;Signal;HPM_P1;HPM_P2
2022/04/17 00:01:36;;;;;;;;;4.75;4.75;;;;;;;;5021140;28;45465;-62
2022/04/17 00:04:01;;;;;;;;;6.50;6.00;;;;;;;;5032524;28;45747;-62
2022/04/17 00:06:27;;;;;;;;;3.00;3.00;;;;;;;;5034085;28;45413;-61
2022/04/17 00:08:52;;;;;;;;;6.00;4.50;;;;;;;;5032801;28;45924;-61
2022/04/17 00:11:17;;;;;;;;;5.00;5.00;;;;;;;;5027676;28;45315;-61
2022/04/17 00:13:44;;;;;;;;;5.00;5.00;;;;;;;;5021971;28;45494;-62
2022/04/17 00:16:09;;;;;;;;;3.00;3.00;;;;;;;;5032225;28;45457;-61
2022/04/17 00:18:34;;;;;;;;;5.50;5.50;;;;;;;;5032820;28;45622;-61
2022/04/17 00:21:00;;;;;;;;;4.00;4.00;;;;;;;;5033718;28;45463;-61
2022/04/17 00:23:25;;;;;;;;;3.00;3.00;;;;;;;;5032206;28;45528;-61
2022/04/17 00:25:51;;;;;;;;;2.75;2.50;;;;;;;;5030918;28;45573;-61
2022/04/17 00:28:16;;;;;;;;;4.50;4.50;;;;;;;;5031958;28;45440;-61
2022/04/17 00:30:41;;;;;;;;;4.25;3.25;;;;;;;;5032074;28;45281;-61
2022/04/17 00:33:06;;;;;;;;;7.25;5.25;;;;;;;;5034214;28;45452;-61
2022/04/17 00:35:31;;;;;;;;;4.00;4.00;;;;;;;;5027516;28;45407;-61
2022/04/17 00:37:57;;;;;;;;;3.00;3.00;;;;;;;;5022896;28;45755;-61
2022/04/17 00:40:22;;;;;;;;;4.25;4.00;;;;;;;;5030821;28;45785;-62
2022/04/17 00:42:48;;;;;;;;;4.50;4.50;;;;;;;;5032055;28;45482;-62
2022/04/17 00:45:14;;;;;;;;;4.75;4.75;;;;;;;;5033942;28;45494;-62
2022/04/17 00:47:40;;;;;;;;;5.25;4.75;;;;;;;;5031790;28;46753;-59
2022/04/17 00:50:07;;;;;;;;;5.00;4.50;;;;;;;;5031369;28;45419;-62
2022/04/17 00:52:32;;;;;;;;;3.50;3.50;;;;;;;;5031948;28;45454;-61
2022/04/17 00:54:59;;;;;;;;;5.00;5.00;;;;;;;;5031786;28;45368;-61
2022/04/17 00:57:25;;;;;;;;;3.00;3.00;;;;;;;;5033555;28;45422;-62
2022/04/17 00:59:50;;;;;;;;;3.00;3.00;;;;;;;;5031723;28;45493;-61
2022/04/17 01:02:15;;;;;;;;;5.00;5.00;;;;;;;;5034827;28;45423;-61
2022/04/17 01:04:41;;;;;;;;;6.00;6.00;;;;;;;;5034034;28;45541;-61
2022/04/17 01:07:06;;;;;;;;;4.50;4.50;;;;;;;;5034934;28;46967;-62
2022/04/17 01:09:32;;;;;;;;;7.25;4.25;;;;;;;;5036213;28;45502;-62
2022/04/17 01:11:58;;;;;;;;;6.25;6.25;;;;;;;;5036117;28;45408;-61
2022/04/17 01:14:26;;;;;;;;;4.50;4.50;;;;;;;;5030112;28;45330;-61
2022/04/17 01:16:52;;;;;;;;;2.50;2.50;;;;;;;;5025553;28;45863;-61
2022/04/17 01:19:17;;;;;;;;;5.25;5.25;;;;;;;;5033436;28;45575;-62
2022/04/17 01:21:43;;;;;;;;;5.25;5.25;;;;;;;;5035022;28;45408;-61
2022/04/17 01:26:56;;;;;;;;;7.00;6.75;;;;;;;;5034830;28;45901;-60
2022/04/17 01:29:22;;;;;;;;;7.75;7.75;;;;;;;;5034178;28;45620;-61
2022/04/17 01:31:47;;;;;;;;;7.75;7.75;;;;;;;;5034841;28;45527;-61
2022/04/17 01:34:16;;;;;;;;;13.00;10.00;;;;;;;;5034622;28;45606;-61
2022/04/17 01:36:42;;;;;;;;;20.00;17.75;;;;;;;;5034801;28;46585;-61
2022/04/17 01:39:07;;;;;;;;;22.00;20.50;;;;;;;;5036548;28;45445;-61
2022/04/17 01:41:33;;;;;;;;;38.00;30.75;;;;;;;;5034495;28;45413;-61
2022/04/17 01:43:58;;;;;;;;;41.25;34.25;;;;;;;;5034463;28;45405;-61
2022/04/17 01:46:23;;;;;;;;;37.75;33.25;;;;;;;;5034334;28;46410;-61
2022/04/17 01:48:48;;;;;;;;;47.00;38.00;;;;;;;;5034387;28;45511;-60
2022/04/17 01:51:13;;;;;;;;;43.75;35.00;;;;;;;;5036579;28;45278;-61
2022/04/17 01:53:39;;;;;;;;;30.25;28.50;;;;;;;;5034401;28;45319;-61
2022/04/17 01:56:04;;;;;;;;;33.75;31.25;;;;;;;;5034056;28;45437;-61
2022/04/17 01:58:29;;;;;;;;;34.75;29.75;;;;;;;;5032643;28;45556;-61
2022/04/17 02:00:54;;;;;;;;;34.00;32.25;;;;;;;;5034748;28;45660;-61
2022/04/17 02:03:20;;;;;;;;;34.00;30.00;;;;;;;;5036226;28;45314;-61
2022/04/17 02:05:45;;;;;;;;;30.25;24.00;;;;;;;;5033775;28;45476;-61
2022/04/17 02:08:13;;;;;;;;;24.75;23.50;;;;;;;;5029583;28;46104;-60
2022/04/17 02:10:38;;;;;;;;;16.00;15.75;;;;;;;;5022909;28;45492;-61
2022/04/17 02:13:04;;;;;;;;;13.00;11.00;;;;;;;;5034154;28;45415;-61
2022/04/17 02:15:29;;;;;;;;;12.00;11.25;;;;;;;;5035272;28;45714;-60
2022/04/17 02:17:54;;;;;;;;;10.75;10.75;;;;;;;;5031142;28;45528;-61
2022/04/17 02:20:19;;;;;;;;;9.00;5.00;;;;;;;;5030053;28;45480;-61
2022/04/17 02:22:45;;;;;;;;;2.75;2.00;;;;;;;;5034152;28;45465;-61
2022/04/17 02:25:10;;;;;;;;;7.25;7.25;;;;;;;;5032436;28;45851;-61
2022/04/17 02:27:35;;;;;;;;;7.50;6.75;;;;;;;;5034389;28;45421;-61
2022/04/17 02:30:00;;;;;;;;;5.00;5.00;;;;;;;;5035269;28;45410;-61
2022/04/17 02:32:26;;;;;;;;;3.75;3.75;;;;;;;;5033941;28;46192;-61
2022/04/17 02:34:51;;;;;;;;;7.25;7.25;;;;;;;;5033624;28;46293;-61
2022/04/17 02:37:16;;;;;;;;;5.75;5.75;;;;;;;;5032345;28;45396;-61
2022/04/17 02:39:41;;;;;;;;;5.00;5.00;;;;;;;;5033716;28;45688;-60
2022/04/17 02:42:06;;;;;;;;;6.75;5.25;;;;;;;;5031156;28;45540;-61
2022/04/17 02:44:32;;;;;;;;;6.00;6.00;;;;;;;;5028208;28;47590;-61
2022/04/17 02:49:41;;;;;;;;;5.00;5.00;;;;;;;;5033522;28;45772;-61
2022/04/17 02:52:06;;;;;;;;;6.50;6.50;;;;;;;;5032084;28;45334;-61
2022/04/17 02:54:31;;;;;;;;;5.50;5.50;;;;;;;;5034660;28;45627;-61
2022/04/17 02:56:57;;;;;;;;;6.00;6.00;;;;;;;;5034132;28;45431;-60
2022/04/17 02:59:22;;;;;;;;;5.50;5.25;;;;;;;;5033333;28;45601;-61
2022/04/17 03:07:14;;;;;;;;;4.00;4.00;;;;;;;;5033336;28;46169;-61
2022/04/17 03:09:40;;;;;;;;;5.00;5.00;;;;;;;;5033503;28;49852;-61
2022/04/17 03:12:05;;;;;;;;;5.50;5.00;;;;;;;;5031864;28;45668;-60
2022/04/17 03:14:30;;;;;;;;;8.00;6.00;;;;;;;;5032756;28;47111;-60
2022/04/17 03:16:56;;;;;;;;;3.50;3.50;;;;;;;;5031770;28;45459;-61
2022/04/17 03:19:21;;;;;;;;;4.00;4.00;;;;;;;;5033257;28;45423;-61
2022/04/17 03:21:46;;;;;;;;;4.00;4.00;;;;;;;;5033213;28;45370;-62
2022/04/17 03:24:12;;;;;;;;;4.00;4.00;;;;;;;;5034170;28;46740;-61
2022/04/17 03:26:41;;;;;;;;;4.25;4.25;;;;;;;;5032866;28;45579;-61
2022/04/17 03:29:06;;;;;;;;;4.25;4.25;;;;;;;;5032979;28;45306;-59
2022/04/17 03:31:31;;;;;;;;;4.00;4.00;;;;;;;;5031801;28;45493;-61
2022/04/17 03:33:56;;;;;;;;;5.00;4.00;;;;;;;;5032856;28;45658;-61
2022/04/17 03:36:21;;;;;;;;;4.00;4.00;;;;;;;;5030484;28;45785;-61
2022/04/17 03:38:47;;;;;;;;;5.25;4.00;;;;;;;;5030968;28;45662;-61
2022/04/17 03:41:12;;;;;;;;;4.00;3.00;;;;;;;;5032925;28;45550;-61
2022/04/17 03:43:37;;;;;;;;;3.50;3.00;;;;;;;;5031278;28;47072;-61
2022/04/17 03:46:02;;;;;;;;;3.00;3.00;;;;;;;;5032397;28;45450;-61
2022/04/17 03:48:27;;;;;;;;;6.25;5.25;;;;;;;;5034265;28;45494;-62
2022/04/17 03:50:53;;;;;;;;;4.00;4.00;;;;;;;;5033378;28;45483;-62
2022/04/17 03:53:18;;;;;;;;;4.50;4.50;;;;;;;;5031390;28;46416;-62
2022/04/17 03:55:43;;;;;;;;;4.25;4.25;;;;;;;;5032593;28;45333;-61
2022/04/17 03:58:08;;;;;;;;;4.50;4.50;;;;;;;;5032823;28;45485;-61
2022/04/17 04:00:34;;;;;;;;;6.50;4.00;;;;;;;;5033661;28;45353;-61
2022/04/17 04:02:59;;;;;;;;;5.00;5.00;;;;;;;;5033620;28;46983;-61
2022/04/17 04:05:25;;;;;;;;;5.50;5.50;;;;;;;;5032110;28;45412;-61
2022/04/17 04:07:50;;;;;;;;;4.00;4.00;;;;;;;;5032380;28;45556;-61
2022/04/17 04:10:15;;;;;;;;;5.75;5.00;;;;;;;;5031139;28;45388;-61
2022/04/17 04:12:41;;;;;;;;;6.00;4.75;;;;;;;;5029906;28;46635;-61
2022/04/17 04:15:07;;;;;;;;;4.00;4.00;;;;;;;;5034343;28;47103;-62
2022/04/17 04:17:32;;;;;;;;;3.25;3.25;;;;;;;;5032151;28;45408;-61
2022/04/17 04:19:58;;;;;;;;;5.00;3.00;;;;;;;;5031938;28;45934;-61
2022/04/17 04:22:23;;;;;;;;;2.50;2.50;;;;;;;;5030912;28;48625;-61
2022/04/17 04:24:48;;;;;;;;;5.00;5.00;;;;;;;;5032082;28;45250;-61
2022/04/17 04:29:57;;;;;;;;;3.25;3.25;;;;;;;;5032898;28;45538;-60
2022/04/17 04:32:22;;;;;;;;;5.50;5.50;;;;;;;;5027133;28;48747;-59
2022/04/17 04:34:48;;;;;;;;;5.00;3.75;;;;;;;;5022267;28;45415;-59
2022/04/17 04:37:13;;;;;;;;;5.75;5.75;;;;;;;;5032986;28;45454;-59
2022/04/17 04:39:38;;;;;;;;;4.00;3.00;;;;;;;;5035892;28;45314;-61
2022/04/17 04:42:04;;;;;;;;;5.00;5.00;;;;;;;;5037394;28;45516;-60
2022/04/17 04:44:29;;;;;;;;;6.00;6.00;;;;;;;;5035502;28;45365;-61
2022/04/17 04:46:55;;;;;;;;;4.50;4.25;;;;;;;;5035894;28;45360;-61
2022/04/17 04:49:29;;;;;;;;;5.50;5.50;;;;;;;;5034302;28;45291;-61
2022/04/17 04:51:55;;;;;;;;;7.50;4.50;;;;;;;;5018397;28;45445;-60
2022/04/17 04:54:20;;;;;;;;;4.50;4.50;;;;;;;;5033070;28;45340;-60
2022/04/17 04:56:45;;;;;;;;;5.00;3.25;;;;;;;;5035321;28;45333;-61
2022/04/17 04:59:10;;;;;;;;;4.25;4.25;;;;;;;;5030592;28;45463;-61
2022/04/17 05:01:36;;;;;;;;;6.75;4.25;;;;;;;;5025311;28;47693;-59
2022/04/17 05:04:02;;;;;;;;;6.00;6.00;;;;;;;;5035163;28;45380;-61
2022/04/17 05:06:27;;;;;;;;;2.25;2.25;;;;;;;;5036800;28;45504;-61
2022/04/17 05:08:52;;;;;;;;;4.00;4.00;;;;;;;;5035796;28;45414;-61
2022/04/17 05:11:18;;;;;;;;;3.25;3.25;;;;;;;;5034852;28;45783;-61
2022/04/17 05:13:44;;;;;;;;;4.25;4.25;;;;;;;;5033520;28;45430;-65
2022/04/17 05:16:09;;;;;;;;;4.00;4.00;;;;;;;;5033633;28;45341;-61
2022/04/17 05:18:34;;;;;;;;;4.25;4.25;;;;;;;;5032501;28;45358;-61
2022/04/17 05:21:00;;;;;;;;;4.75;4.75;;;;;;;;5036323;28;46456;-61
2022/04/17 05:23:26;;;;;;;;;4.50;4.25;;;;;;;;5034612;28;45559;-61
2022/04/17 05:25:55;;;;;;;;;3.00;3.00;;;;;;;;5034646;28;45451;-61
2022/04/17 05:28:21;;;;;;;;;5.25;5.25;;;;;;;;5034662;28;45488;-59
2022/04/17 05:30:46;;;;;;;;;6.00;6.00;;;;;;;;5031968;28;47817;-62
2022/04/17 05:33:12;;;;;;;;;6.75;5.00;;;;;;;;5014656;28;45299;-60
2022/04/17 05:35:38;;;;;;;;;5.25;5.25;;;;;;;;5032061;28;45853;-61
2022/04/17 05:38:03;;;;;;;;;5.00;5.00;;;;;;;;5028903;28;45381;-60
2022/04/17 05:40:32;;;;;;;;;5.25;5.25;;;;;;;;5019779;28;47007;-60
2022/04/17 05:42:57;;;;;;;;;4.50;4.50;;;;;;;;5033422;28;45540;-61
2022/04/17 05:45:23;;;;;;;;;6.75;5.50;;;;;;;;5030902;28;45507;-61
2022/04/17 05:47:48;;;;;;;;;6.75;5.00;;;;;;;;5032981;28;45709;-61
2022/04/17 05:50:13;;;;;;;;;5.25;4.75;;;;;;;;5033153;28;45602;-61
2022/04/17 05:52:39;;;;;;;;;6.25;5.00;;;;;;;;5030642;28;46295;-59
2022/04/17 05:55:05;;;;;;;;;7.00;5.50;;;;;;;;5029860;28;45701;-60
2022/04/17 05:57:30;;;;;;;;;3.25;3.25;;;;;;;;5030755;28;45523;-60
2022/04/17 05:59:55;;;;;;;;;4.00;4.00;;;;;;;;5033932;28;45508;-60
2022/04/17 06:02:20;;;;;;;;;6.00;6.00;;;;;;;;5033023;28;45330;-60
2022/04/17 06:04:47;;;;;;;;;5.50;5.50;;;;;;;;5031881;28;45528;-59
2022/04/17 06:07:13;;;;;;;;;5.00;5.00;;;;;;;;5033247;28;45465;-59
2022/04/17 06:09:38;;;;;;;;;7.50;5.00;;;;;;;;5034054;28;45496;-59
2022/04/17 06:12:03;;;;;;;;;5.50;5.50;;;;;;;;5028279;28;45369;-59
2022/04/17 06:14:28;;;;;;;;;5.50;4.75;;;;;;;;5028478;28;45381;-59
2022/04/17 06:16:54;;;;;;;;;5.00;5.00;;;;;;;;5026577;28;45432;-59
2022/04/17 06:19:19;;;;;;;;;6.00;5.00;;;;;;;;5033843;28;45871;-60
2022/04/17 06:21:44;;;;;;;;;5.50;5.50;;;;;;;;5031019;28;45657;-59
2022/04/17 06:24:09;;;;;;;;;7.75;6.50;;;;;;;;5033519;28;45428;-59
2022/04/17 06:26:35;;;;;;;;;10.25;5.00;;;;;;;;5032810;28;45451;-60
2022/04/17 06:29:03;;;;;;;;;5.75;4.50;;;;;;;;4984483;28;1376359;-60
2022/04/17 06:31:28;;;;;;;;;4.00;4.00;;;;;;;;5032332;28;45389;-60
2022/04/17 06:33:54;;;;;;;;;5.00;5.00;;;;;;;;5033843;28;45357;-60
2022/04/17 06:36:19;;;;;;;;;6.50;5.00;;;;;;;;5035970;28;45621;-60
2022/04/17 06:38:45;;;;;;;;;4.00;4.00;;;;;;;;5033388;28;45916;-60
2022/04/17 06:41:10;;;;;;;;;5.00;5.00;;;;;;;;5028964;28;45491;-60
2022/04/17 06:43:36;;;;;;;;;5.00;5.00;;;;;;;;5037441;28;45503;-60
2022/04/17 06:46:01;;;;;;;;;7.75;5.00;;;;;;;;5033743;28;45322;-60
2022/04/17 06:48:26;;;;;;;;;5.75;5.00;;;;;;;;5035003;28;45340;-60
2022/04/17 06:50:52;;;;;;;;;4.00;4.00;;;;;;;;5034075;28;45332;-60
2022/04/17 06:53:18;;;;;;;;;4.50;4.50;;;;;;;;5033611;28;45529;-60
2022/04/17 06:55:43;;;;;;;;;6.75;5.50;;;;;;;;5032411;28;45576;-60
2022/04/17 06:58:09;;;;;;;;;6.50;5.50;;;;;;;;5022892;28;45531;-60
2022/04/17 07:00:35;;;;;;;;;6.00;5.75;;;;;;;;5022599;28;45483;-61
2022/04/17 07:03:00;;;;;;;;;6.00;6.00;;;;;;;;5017789;28;45590;-60
2022/04/17 07:05:25;;;;;;;;;7.00;5.00;;;;;;;;5018973;28;45504;-60
2022/04/17 07:07:58;;;;;;;;;4.75;4.75;;;;;;;;5019684;28;45964;-60
2022/04/17 07:10:24;;;;;;;;;5.00;5.00;;;;;;;;5018239;28;46442;-60
2022/04/17 07:12:49;;;;;;;;;9.25;7.75;;;;;;;;5016526;28;45401;-60
2022/04/17 07:15:15;;;;;;;;;5.00;5.00;;;;;;;;5019205;28;45362;-60
2022/04/17 07:17:41;;;;;;;;;5.75;5.75;;;;;;;;5020689;28;46904;-60
2022/04/17 07:20:07;;;;;;;;;5.75;5.75;;;;;;;;5021522;28;45633;-60
2022/04/17 07:22:36;;;;;;;;;7.00;7.00;;;;;;;;5017861;28;45361;-60
2022/04/17 07:25:02;;;;;;;;;5.00;5.00;;;;;;;;5031061;28;45590;-60
2022/04/17 07:27:28;;;;;;;;;9.75;9.75;;;;;;;;5018008;28;45409;-60
2022/04/17 07:29:53;;;;;;;;;49.50;41.25;;;;;;;;5029441;28;45467;-60
2022/04/17 07:32:19;;;;;;;;;11.00;8.50;;;;;;;;5022969;28;45505;-59
2022/04/17 07:34:44;;;;;;;;;56.50;47.00;;;;;;;;5019441;28;45506;-60
2022/04/17 07:37:09;;;;;;;;;10.00;9.25;;;;;;;;5030988;28;45758;-60
2022/04/17 07:39:35;;;;;;;;;18.25;18.25;;;;;;;;5017291;28;50465;-60
2022/04/17 07:42:00;;;;;;;;;41.75;37.00;;;;;;;;5019959;28;45552;-60
2022/04/17 07:44:29;;;;;;;;;15.00;15.00;;;;;;;;5033849;28;45519;-60
2022/04/17 07:46:55;;;;;;;;;35.75;33.00;;;;;;;;5027421;28;47626;-60
2022/04/17 07:49:21;;;;;;;;;25.75;22.00;;;;;;;;5018943;28;45603;-60
2022/04/17 07:51:46;;;;;;;;;28.00;25.75;;;;;;;;5032783;28;45388;-61
2022/04/17 07:54:11;;;;;;;;;15.00;15.00;;;;;;;;5034503;28;45535;-61
2022/04/17 07:56:37;;;;;;;;;10.75;10.75;;;;;;;;5031804;28;46740;-61
2022/04/17 07:59:02;;;;;;;;;5.50;5.50;;;;;;;;5027822;28;47694;-61
2022/04/17 08:01:30;;;;;;;;;47.50;39.25;;;;;;;;5019572;28;45542;-61
2022/04/17 08:03:56;;;;;;;;;37.50;34.25;;;;;;;;5017006;28;45333;-62
2022/04/17 08:06:21;;;;;;;;;26.75;26.75;;;;;;;;5034179;28;45853;-62
2022/04/17 08:08:47;;;;;;;;;15.50;13.50;;;;;;;;5027401;28;46257;-61
2022/04/17 08:11:12;;;;;;;;;15.00;15.00;;;;;;;;5024366;28;45452;-61
2022/04/17 08:13:38;;;;;;;;;12.25;12.00;;;;;;;;5032331;28;45523;-63
2022/04/17 08:16:04;;;;;;;;;8.00;8.00;;;;;;;;5032103;28;46465;-61
2022/04/17 08:18:30;;;;;;;;;5.75;5.75;;;;;;;;5033619;28;45377;-61
2022/04/17 08:20:55;;;;;;;;;7.25;7.25;;;;;;;;5032902;28;45634;-61
2022/04/17 08:23:20;;;;;;;;;7.75;7.75;;;;;;;;5031753;28;45426;-61
2022/04/17 08:25:46;;;;;;;;;9.00;9.00;;;;;;;;5030521;28;47437;-59
2022/04/17 08:28:12;;;;;;;;;7.75;7.75;;;;;;;;5030707;28;45499;-60
2022/04/17 08:30:37;;;;;;;;;7.00;7.00;;;;;;;;5033725;28;45402;-62
2022/04/17 08:33:04;;;;;;;;;10.50;10.50;;;;;;;;5031610;28;45518;-62
2022/04/17 08:35:29;;;;;;;;;10.00;9.75;;;;;;;;5031404;28;45973;-64
2022/04/17 08:37:57;;;;;;;;;7.00;7.00;;;;;;;;5027300;28;45520;-63
2022/04/17 08:40:23;;;;;;;;;8.50;6.75;;;;;;;;5017305;28;45493;-63
2022/04/17 08:42:49;;;;;;;;;7.50;7.50;;;;;;;;5013941;28;45410;-61
2022/04/17 08:45:14;;;;;;;;;7.75;7.50;;;;;;;;5032072;28;47785;-63
2022/04/17 08:47:40;;;;;;;;;5.75;5.75;;;;;;;;5031750;28;45396;-61
2022/04/17 08:50:06;;;;;;;;;6.50;6.50;;;;;;;;5031931;28;45471;-61
2022/04/17 08:52:33;;;;;;;;;7.75;6.00;;;;;;;;5031652;28;45462;-62
2022/04/17 08:54:59;;;;;;;;;7.00;7.00;;;;;;;;5030263;28;48266;-62
2022/04/17 08:57:24;;;;;;;;;7.00;6.25;;;;;;;;5028931;28;46018;-63
2022/04/17 08:59:49;;;;;;;;;7.50;6.50;;;;;;;;5031338;28;45376;-61
2022/04/17 09:02:16;;;;;;;;;16.75;16.75;;;;;;;;5031422;28;45469;-60
2022/04/17 09:04:42;;;;;;;;;30.50;28.25;;;;;;;;5031189;28;46585;-58
2022/04/17 09:07:07;;;;;;;;;32.50;28.50;;;;;;;;5030064;28;45535;-62
2022/04/17 09:09:36;;;;;;;;;49.00;40.75;;;;;;;;5029096;28;45295;-66
2022/04/17 09:12:02;;;;;;;;;52.75;43.50;;;;;;;;5032827;28;45745;-65
2022/04/17 09:14:27;;;;;;;;;46.25;40.25;;;;;;;;5031224;28;45411;-69
2022/04/17 09:16:52;;;;;;;;;16.00;16.00;;;;;;;;5029718;28;45497;-67
2022/04/17 09:19:18;;;;;;;;;17.00;15.25;;;;;;;;5030921;28;45404;-65
2022/04/17 09:21:45;;;;;;;;;9.00;7.25;;;;;;;;5032388;28;45382;-65
2022/04/17 09:24:28;;;;;;;;;5.00;5.00;;;;;;;;5031861;28;47199;-63
2022/04/17 09:26:54;;;;;;;;;4.00;4.00;;;;;;;;5035061;28;45514;-70
2022/04/17 09:29:30;;;;;;;;;4.75;4.25;;;;;;;;5030670;28;45789;-63
2022/04/17 09:32:01;;;;;;;;;2.50;2.50;;;;;;;;5027100;28;45430;-64
2022/04/17 09:34:26;;;;;;;;;22.25;20.75;;;;;;;;5034237;28;49089;-63
2022/04/17 09:36:55;;;;;;;;;4.50;4.50;;;;;;;;5033734;28;45330;-63
2022/04/17 09:39:20;;;;;;;;;6.00;6.00;;;;;;;;5036931;28;45443;-64
2022/04/17 09:41:55;;;;;;;;;5.00;5.00;;;;;;;;5029761;28;45689;-64
2022/04/17 09:44:45;;;;;;;;;3.50;3.50;;;;;;;;5028741;28;45694;-63
2022/04/17 09:47:12;;;;;;;;;4.00;4.00;;;;;;;;5032932;28;45467;-64
2022/04/17 09:49:49;;;;;;;;;4.50;4.50;;;;;;;;5034468;28;45436;-63
2022/04/17 09:52:14;;;;;;;;;3.25;3.25;;;;;;;;5034363;28;45424;-63
2022/04/17 09:54:42;;;;;;;;;3.00;3.00;;;;;;;;5015230;28;48497;-65
2022/04/17 09:57:08;;;;;;;;;5.00;3.25;;;;;;;;5033001;28;45682;-64
2022/04/17 09:59:33;;;;;;;;;9.50;5.50;;;;;;;;5029783;28;45444;-63
2022/04/17 10:01:58;;;;;;;;;4.00;4.00;;;;;;;;5027155;28;45327;-63
2022/04/17 10:04:24;;;;;;;;;5.00;4.00;;;;;;;;5032901;28;48273;-63
2022/04/17 10:06:50;;;;;;;;;2.25;2.25;;;;;;;;5032667;28;45416;-64
2022/04/17 10:09:16;;;;;;;;;3.75;3.00;;;;;;;;5031407;28;45472;-63
2022/04/17 10:11:41;;;;;;;;;5.50;4.50;;;;;;;;5031216;28;45529;-64
2022/04/17 10:14:06;;;;;;;;;3.50;3.50;;;;;;;;5033584;28;46768;-64
2022/04/17 10:16:33;;;;;;;;;7.00;7.00;;;;;;;;5031917;28;45390;-63
2022/04/17 10:19:00;;;;;;;;;4.00;3.00;;;;;;;;5032388;28;45525;-65
2022/04/17 10:21:25;;;;;;;;;6.00;5.25;;;;;;;;5035272;28;45447;-63
2022/04/17 10:23:54;;;;;;;;;5.25;5.25;;;;;;;;5028755;28;46516;-62
2022/04/17 10:26:20;;;;;;;;;5.00;4.00;;;;;;;;5028392;28;45611;-62
2022/04/17 10:28:48;;;;;;;;;3.25;3.25;;;;;;;;5033380;28;45673;-64
2022/04/17 10:31:17;;;;;;;;;19.00;19.00;;;;;;;;5031214;28;45751;-67
2022/04/17 10:34:03;;;;;;;;;3.00;3.00;;;;;;;;5028434;28;48576;-66
2022/04/17 10:37:01;;;;;;;;;4.00;3.75;;;;;;;;5030797;28;45518;-64
2022/04/17 10:39:35;;;;;;;;;3.00;3.00;;;;;;;;4992949;28;45684;-65
2022/04/17 10:42:00;;;;;;;;;7.75;6.75;;;;;;;;5008816;28;45510;-65
2022/04/17 10:44:30;;;;;;;;;7.00;7.00;;;;;;;;4988245;28;45631;-67
2022/04/17 10:46:56;;;;;;;;;5.00;5.00;;;;;;;;4990721;28;45558;-64
2022/04/17 10:49:26;;;;;;;;;4.00;4.00;;;;;;;;4990609;28;45543;-63
2022/04/17 10:51:52;;;;;;;;;4.25;3.25;;;;;;;;4974102;28;45485;-65
2022/04/17 10:54:18;;;;;;;;;3.00;3.00;;;;;;;;4992120;28;45813;-65
2022/04/17 10:56:55;;;;;;;;;3.00;3.00;;;;;;;;4991079;28;45429;-64
2022/04/17 10:59:27;;;;;;;;;3.25;3.25;;;;;;;;4990877;28;45552;-63
2022/04/17 11:02:07;;;;;;;;;4.00;4.00;;;;;;;;4991063;28;45423;-65
2022/04/17 11:04:39;;;;;;;;;4.00;4.00;;;;;;;;4990819;28;45382;-65
2022/04/17 11:07:05;;;;;;;;;6.75;5.00;;;;;;;;4990328;28;45549;-63
2022/04/17 11:09:31;;;;;;;;;5.00;5.00;;;;;;;;4992323;28;45311;-66
2022/04/17 11:12:05;;;;;;;;;5.00;5.00;;;;;;;;4990440;28;45530;-63
2022/04/17 11:14:30;;;;;;;;;12.50;12.50;;;;;;;;4981658;28;46710;-62
2022/04/17 11:16:59;;;;;;;;;3.00;3.00;;;;;;;;5023823;28;46289;-66
2022/04/17 11:19:24;;;;;;;;;4.00;4.00;;;;;;;;5032875;28;45500;-65
2022/04/17 11:21:51;;;;;;;;;4.00;4.00;;;;;;;;5033232;28;45632;-66
2022/04/17 11:24:17;;;;;;;;;1.50;1.50;;;;;;;;5034844;28;46519;-65
2022/04/17 11:27:05;;;;;;;;;3.50;3.25;;;;;;;;5032837;28;45765;-65
2022/04/17 11:29:47;;;;;;;;;1.50;1.50;;;;;;;;5029383;28;45710;-64
2022/04/17 11:32:18;;;;;;;;;10.00;10.00;;;;;;;;5031173;28;45497;-66
2022/04/17 11:34:47;;;;;;;;;11.50;11.25;;;;;;;;5031497;28;46158;-62
2022/04/17 11:37:15;;;;;;;;;16.00;14.75;;;;;;;;5029537;28;45453;-64
2022/04/17 11:39:41;;;;;;;;;2.75;2.75;;;;;;;;5030827;28;45627;-64
2022/04/17 11:42:07;;;;;;;;;6.25;5.25;;;;;;;;5031876;28;45691;-64
2022/04/17 11:44:33;;;;;;;;;4.75;4.75;;;;;;;;5030400;28;46437;-63
2022/04/17 11:46:58;;;;;;;;;3.75;3.75;;;;;;;;5032113;28;45704;-63
2022/04/17 11:49:24;;;;;;;;;7.00;7.00;;;;;;;;5032225;28;45326;-67
2022/04/17 11:51:49;;;;;;;;;8.75;7.75;;;;;;;;5032465;28;45584;-64
2022/04/17 11:54:33;;;;;;;;;6.25;6.25;;;;;;;;5029710;28;46475;-63
2022/04/17 11:56:58;;;;;;;;;4.50;4.50;;;;;;;;5031850;28;45329;-62
2022/04/17 11:59:23;;;;;;;;;9.25;7.50;;;;;;;;5032055;28;45730;-63
2022/04/17 12:02:07;;;;;;;;;7.00;6.50;;;;;;;;5030983;28;45442;-62
2022/04/17 12:04:32;;;;;;;;;4.00;4.00;;;;;;;;5032002;28;47713;-64
2022/04/17 12:06:58;;;;;;;;;14.00;12.25;;;;;;;;5032256;28;45590;-64
2022/04/17 12:09:23;;;;;;;;;7.25;7.00;;;;;;;;5029560;28;45479;-63
2022/04/17 12:11:49;;;;;;;;;4.50;4.50;;;;;;;;5031913;28;45973;-63
2022/04/17 12:14:26;;;;;;;;;10.75;9.75;;;;;;;;5031503;28;45481;-63
2022/04/17 12:16:51;;;;;;;;;3.00;3.00;;;;;;;;5031991;28;45505;-63
2022/04/17 12:19:16;;;;;;;;;8.75;7.25;;;;;;;;5032130;28;45630;-63
2022/04/17 12:21:41;;;;;;;;;4.00;4.00;;;;;;;;5032995;28;45274;-62
2022/04/17 12:24:06;;;;;;;;;4.50;4.50;;;;;;;;5027296;28;47372;-62
2022/04/17 12:26:32;;;;;;;;;4.25;4.25;;;;;;;;5027957;28;45523;-62
2022/04/17 12:28:57;;;;;;;;;3.50;3.50;;;;;;;;5030723;28;45509;-62
2022/04/17 12:31:22;;;;;;;;;24.75;24.50;;;;;;;;5026760;28;46138;-61
2022/04/17 12:33:47;;;;;;;;;7.00;7.00;;;;;;;;5015166;28;46693;-61
2022/04/17 12:36:13;;;;;;;;;8.50;8.50;;;;;;;;5018557;28;45462;-62
2022/04/17 12:38:40;;;;;;;;;4.50;4.50;;;;;;;;5018356;28;45434;-62
2022/04/17 12:41:27;;;;;;;;;11.25;11.25;;;;;;;;5015940;28;45943;-62
2022/04/17 12:43:53;;;;;;;;;2.75;2.75;;;;;;;;5019472;28;45567;-62
2022/04/17 12:46:25;;;;;;;;;4.00;4.00;;;;;;;;5029388;28;45575;-63
2022/04/17 12:49:01;;;;;;;;;2.00;2.00;;;;;;;;5031587;28;45373;-60
2022/04/17 12:51:26;;;;;;;;;11.75;11.00;;;;;;;;5045467;28;45476;-61
2022/04/17 12:53:52;;;;;;;;;3.25;3.25;;;;;;;;5027139;28;45565;-61
2022/04/17 12:56:17;;;;;;;;;1.75;1.75;;;;;;;;5027573;28;45421;-61
2022/04/17 12:58:49;;;;;;;;;3.00;3.00;;;;;;;;5029218;28;45626;-61
2022/04/17 13:01:19;;;;;;;;;3.00;3.00;;;;;;;;5030860;28;45527;-61
2022/04/17 13:03:45;;;;;;;;;2.00;2.00;;;;;;;;5031580;28;47575;-61
2022/04/17 13:06:17;;;;;;;;;4.00;4.00;;;;;;;;5032640;28;45455;-61
2022/04/17 13:08:42;;;;;;;;;5.25;5.25;;;;;;;;5030666;28;45653;-61
2022/04/17 13:11:20;;;;;;;;;4.00;3.00;;;;;;;;5038282;28;45453;-61
2022/04/17 13:13:50;;;;;;;;;5.25;3.00;;;;;;;;5034789;28;46522;-61
2022/04/17 13:16:15;;;;;;;;;3.25;3.25;;;;;;;;5035071;28;45573;-61
2022/04/17 13:18:41;;;;;;;;;2.00;2.00;;;;;;;;5035307;28;45605;-61
2022/04/17 13:21:07;;;;;;;;;3.75;3.75;;;;;;;;5036718;28;45384;-60
2022/04/17 13:23:33;;;;;;;;;1.25;1.25;;;;;;;;5034786;28;45949;-61
2022/04/17 13:25:58;;;;;;;;;1.50;1.50;;;;;;;;5034417;28;45384;-61
2022/04/17 13:28:23;;;;;;;;;2.00;2.00;;;;;;;;5034779;28;45377;-61
2022/04/17 13:30:49;;;;;;;;;1.50;1.25;;;;;;;;5034991;28;45577;-62
2022/04/17 13:33:15;;;;;;;;;2.25;2.25;;;;;;;;5035535;28;47634;-62
2022/04/17 13:35:40;;;;;;;;;3.75;3.00;;;;;;;;5029768;28;46192;-62
2022/04/17 13:38:11;;;;;;;;;2.25;2.25;;;;;;;;5021829;28;45429;-62
2022/04/17 13:40:37;;;;;;;;;2.00;2.00;;;;;;;;5023146;28;45496;-61
2022/04/17 13:43:02;;;;;;;;;2.00;2.00;;;;;;;;5034586;28;46606;-61
2022/04/17 13:45:27;;;;;;;;;2.25;2.25;;;;;;;;5036322;28;45380;-62
2022/04/17 13:47:53;;;;;;;;;3.00;3.00;;;;;;;;5034855;28;45556;-61
2022/04/17 13:50:18;;;;;;;;;2.00;2.00;;;;;;;;5030067;28;45496;-62
2022/04/17 13:52:44;;;;;;;;;5.00;3.25;;;;;;;;5023528;28;47179;-62
2022/04/17 13:55:09;;;;;;;;;2.25;2.00;;;;;;;;5034427;28;45542;-61
2022/04/17 13:57:34;;;;;;;;;1.00;1.00;;;;;;;;5035599;28;45998;-61
2022/04/17 14:00:00;;;;;;;;;1.50;1.50;;;;;;;;5030974;28;45457;-61
2022/04/17 14:02:25;;;;;;;;;2.00;2.00;;;;;;;;5029126;28;46579;-61
2022/04/17 14:04:50;;;;;;;;;3.00;2.50;;;;;;;;5034161;28;45479;-60
2022/04/17 14:07:15;;;;;;;;;1.50;1.50;;;;;;;;5034227;28;45350;-63
2022/04/17 14:09:41;;;;;;;;;2.00;2.00;;;;;;;;5034729;28;45472;-61
2022/04/17 14:12:13;;;;;;;;;2.75;2.75;;;;;;;;5036027;28;45732;-62
2022/04/17 14:14:39;;;;;;;;;2.00;0.00;;;;;;;;5033658;28;45489;-61
2022/04/17 14:17:05;;;;;;;;;3.00;3.00;;;;;;;;5028121;28;45465;-61
2022/04/17 14:19:30;;;;;;;;;1.75;1.75;;;;;;;;5022630;28;45408;-61
2022/04/17 14:21:55;;;;;;;;;2.00;2.00;;;;;;;;5034043;28;46427;-61
2022/04/17 14:24:21;;;;;;;;;2.00;2.00;;;;;;;;5034771;28;45427;-61
2022/04/17 14:26:46;;;;;;;;;2.00;2.00;;;;;;;;5029390;28;45387;-61
2022/04/17 14:29:11;;;;;;;;;1.00;1.00;;;;;;;;5026544;28;45531;-61
2022/04/17 14:31:36;;;;;;;;;1.25;1.25;;;;;;;;5033709;28;45729;-61
2022/04/17 14:34:01;;;;;;;;;1.00;1.00;;;;;;;;5033855;28;45405;-61
2022/04/17 14:36:27;;;;;;;;;1.50;1.50;;;;;;;;5014807;28;45628;-61
2022/04/17 14:38:52;;;;;;;;;1.50;1.50;;;;;;;;5033912;28;45314;-61
2022/04/17 14:41:17;;;;;;;;;2.25;1.00;;;;;;;;5033531;28;45603;-61
2022/04/17 14:43:43;;;;;;;;;2.00;2.00;;;;;;;;5033732;28;45636;-61
2022/04/17 14:46:08;;;;;;;;;2.00;2.00;;;;;;;;5032505;28;45507;-61
2022/04/17 14:48:34;;;;;;;;;1.00;1.00;;;;;;;;5034685;28;45538;-61